Latest Coastal Weather Observations for Horn Island

IDQ60701

Issued at 9:01 pm EST Sunday 1 March 2015 (issued every 10 minutes, with the page automatically refreshed every 10 minutes)

About coastal observations | Map of coastal stations | Coastal observations for QLD | Marine services | Other Formats
Station Details ID: 027058 Name: HORN ISLAND Lat: -10.58 Lon: 142.29 Height: 4.0 m
Data from the previous 72 hours. | See also: Recent months at Horn Island
Date/Time
EST
Temp

°C
Wind Pressure Rain
since 9am
mm
Weather Cloud Vis
km
Sea
Height
m
Swell
Dir
 
Speed
knots
Gust
knots
hPa Trend Height
m
Period
s
Dir
01/09:00pm 27.3 WNW 4 5 1007.4 - 2.0 - Mostly clear 10 - - - -
01/08:30pm 27.4 WNW 5 7 1007.1 - 2.0 - - 10 - - - -
01/08:00pm 27.5 WNW 5 6 1006.8 - 2.0 - - 10 - - - -
01/07:30pm 27.9 WNW 6 10 1006.4 - 2.0 - - 10 - - - -
01/07:00pm 28.1 WNW 5 8 1006.1 - 2.0 - Partly cloudy 10 - - - -
01/06:30pm 28.3 WNW 6 9 1005.8 - 2.0 - Partly cloudy 10 - - - -
01/06:00pm 28.5 WNW 8 12 1005.5 - 2.0 - Mostly clear 10 - - - -
01/05:30pm 28.7 WNW 6 10 1005.3 - 2.0 - Partly cloudy 10 - - - -
01/05:00pm 28.9 NW 8 11 1005.1 - 2.0 - Partly cloudy 10 - - - -
01/04:30pm 29.5 NNW 10 14 1004.9 - 2.0 - Partly cloudy 10 - - - -
01/04:00pm 30.1 NW 10 15 1004.9 - 2.0 - - 10 - - - -
01/03:30pm 29.3 NNW 11 15 1005.0 - 2.0 - Partly cloudy 10 - - - -
01/03:00pm 28.9 NW 10 14 1005.2 - 2.0 - Mostly clear 10 - - - -
01/02:30pm 28.9 NNW 10 15 1005.9 - 2.0 - Partly cloudy 10 - - - -
01/02:00pm 28.8 NNW 11 16 1006.3 - 2.0 - Partly cloudy 10 - - - -
01/01:30pm 29.0 NNW 13 18 1006.6 - 2.0 - Partly cloudy 10 - - - -
01/01:00pm 28.9 NNW 11 16 1006.9 - 2.0 - Partly cloudy 10 - - - -
01/12:30pm 27.7 NNW 12 16 1007.4 - 2.0 - Partly cloudy 10 - - - -
01/12:00pm 29.1 NNW 12 19 1007.8 - 2.0 - Mostly cloudy 10 - - - -
01/11:30am 29.0 NNW 11 15 1008.1 - 2.0 - Partly cloudy 10 - - - -
01/11:00am 28.7 NNW 10 14 1008.3 - 2.0 - Partly cloudy 10 - - - -
01/10:30am 27.2 NNW 9 14 1008.6 - 2.0 - Partly cloudy 10 - - - -
01/10:00am 26.5 NW 10 14 1008.9 - 2.0 - Partly cloudy 10 - - - -
01/09:30am 25.7 NW 10 17 1009.2 - 1.4 - Partly cloudy 8 - - - -
01/09:24am 25.7 NW 9 15 1009.2 - 1.2 - Partly cloudy 7 - - - -
01/09:00am 25.3 NW 11 16 1009.2 - 39.4 - Cloudy 7 - - - -
01/08:35am 24.8 NW 10 17 1009.0 - 38.2 - Partly cloudy 9 - - - -
01/08:30am 24.8 NW 9 13 1009.0 - 37.8 - Partly cloudy 8 - - - -
01/08:25am 24.7 NW 10 13 1009.0 - 37.8 - Partly cloudy 5 - - - -
01/08:00am 23.8 W 10 17 1008.7 - 35.0 - Partly cloudy 2 - - - -
01/07:30am 24.7 WNW 10 15 1008.2 - 19.2 - Partly cloudy 1 - - - -
01/07:22am 24.6 W 11 18 1008.1 - 11.8 - Partly cloudy 5 - - - -
01/07:00am 26.7 N 10 14 1007.6 - 10.8 - Partly cloudy 10 - - - -
01/06:59am 26.7 N 11 14 1007.6 - 10.8 - Partly cloudy 10 - - - -
01/06:30am 26.4 N 10 15 1006.9 - 10.8 - Partly cloudy 10 - - - -
01/06:22am 26.5 NNW 9 13 1006.9 - 10.8 - Partly cloudy 10 - - - -
01/06:07am 26.4 NNW 10 14 1006.6 - 10.8 - Partly cloudy 10 - - - -
01/06:00am 26.4 NNW 11 15 1006.5 - 10.8 - Partly cloudy 10 - - - -
01/05:37am 26.3 NNW 10 14 1006.3 - 10.8 - Partly cloudy 10 - - - -
01/05:32am 26.2 NNW 10 13 1006.3 - 10.8 - Partly cloudy 10 - - - -
01/05:30am 26.2 NNW 10 13 1006.2 - 10.8 - Partly cloudy 10 - - - -
01/05:15am 26.2 NNW 9 13 1006.0 - 10.8 - Partly cloudy 10 - - - -
01/05:00am 25.8 NW 8 12 1006.0 - 10.8 - Partly cloudy 10 - - - -
01/04:30am 25.3 NW 8 12 1006.0 - 10.8 - Partly cloudy 10 - - - -
01/04:20am 25.3 NW 7 11 1006.1 - 10.8 - Partly cloudy 10 - - - -
01/04:06am 25.2 WNW 9 17 1006.0 - 10.8 - Partly cloudy 10 - - - -
01/04:00am 25.6 WNW 6 10 1006.0 - 10.4 - Partly cloudy 10 - - - -
01/03:30am 25.3 WNW 4 6 1006.0 - 10.4 - Partly cloudy 10 - - - -
01/03:00am 25.1 W 4 5 1006.2 - 10.4 - Partly cloudy 10 - - - -
01/02:30am 25.0 W 5 7 1006.5 - 10.2 - Partly cloudy 10 - - - -
01/02:00am 24.6 CALM 0 0 1006.9 - 9.8 - Partly cloudy 10 - - - -
01/01:43am 24.5 WNW 3 5 1007.1 - 9.8 - Partly cloudy 9 - - - -
01/01:30am 24.5 W 5 10 1007.4 - 9.6 - Partly cloudy 5 - - - -
01/01:00am 25.5 WNW 11 19 1007.4 - 1.2 - Partly cloudy 4 - - - -
01/12:56am 25.7 WNW 12 20 1007.4 - 1.0 - Partly cloudy 5 - - - -
01/12:30am 27.3 NNW 8 11 1007.6 - 0.2 - - 10 - - - -
01/12:00am 27.5 NNW 8 13 1008.0 - 0.2 - Mostly cloudy 10 - - - -
 
Date/Time
EST
Temp

°C
Wind Pressure Rain
since 9am
mm
Weather Cloud Vis
km
Sea
Height
m
Swell
Dir
 
Speed
knots
Gust
knots
hPa Trend Height
m
Period
s
Dir
28/11:30pm 27.6 NW 9 13 1008.3 - 0.2 - Partly cloudy 10 - - - -
28/11:00pm 27.5 NNW 9 14 1008.4 - 0.2 - Partly cloudy 10 - - - -
28/10:30pm 27.4 NW 7 11 1008.4 - 0.2 - Partly cloudy 10 - - - -
28/10:00pm 27.1 WNW 6 9 1008.3 - 0.2 - - 10 - - - -
28/09:30pm 27.0 WNW 7 10 1007.9 - 0.2 - - 10 - - - -
28/09:00pm 26.9 WNW 6 8 1007.6 - 0.2 - - 10 - - - -
28/08:30pm 26.9 W 6 9 1007.1 - 0.2 - - 10 - - - -
28/08:00pm 26.6 W 7 13 1006.9 - 0.2 - Partly cloudy 10 - - - -
28/07:30pm 26.8 WNW 5 8 1006.8 - 0.2 - Partly cloudy 10 - - - -
28/07:00pm 26.9 WNW 9 15 1006.4 - 0.2 - Partly cloudy 10 - - - -
28/06:30pm 27.7 WNW 8 12 1005.9 - 0.2 - Partly cloudy 10 - - - -
28/06:00pm 27.9 WNW 9 14 1005.6 - 0.2 - Partly cloudy 10 - - - -
28/05:30pm 28.8 WNW 9 14 1005.3 - 0.2 - Partly cloudy 10 - - - -
28/05:00pm 28.3 WNW 9 13 1005.4 - 0.2 - Partly cloudy 10 - - - -
28/04:30pm 28.9 NW 9 14 1005.4 - 0.2 - - 10 - - - -
28/04:00pm 28.1 WNW 10 14 1005.3 - 0.2 - Partly cloudy 10 - - - -
28/03:30pm 27.8 WNW 10 16 1005.4 - 0.2 - Partly cloudy 10 - - - -
28/03:00pm 27.6 WNW 10 17 1005.9 - 0.2 - - 10 - - - -
28/02:30pm 28.3 WNW 10 16 1006.1 - 0.2 - - 10 - - - -
28/02:00pm 28.8 NW 9 13 1006.2 - 0.2 - Partly cloudy 10 - - - -
28/01:54pm 29.2 NW 10 14 1006.3 - 0.2 - Partly cloudy 10 - - - -
28/01:30pm 28.4 NW 11 16 1006.8 - 0.2 - Partly cloudy 10 - - - -
28/01:13pm 28.7 NW 11 15 1007.0 - 0.2 - Partly cloudy 10 - - - -
28/01:00pm 28.0 NW 12 17 1007.1 - 0.2 - - 10 - - - -
28/12:30pm 27.8 NW 13 20 1008.1 - 0.2 - Partly cloudy 10 - - - -
28/12:00pm 28.7 NNW 10 15 1008.6 - 0.2 - Mostly clear 10 - - - -
28/11:40am 27.5 NNW 12 18 1008.7 - 0.2 - Partly cloudy 10 - - - -
28/11:30am 27.4 NNW 12 17 1008.8 - 0.2 - Partly cloudy 10 - - - -
28/11:09am 27.2 N 11 14 1008.9 - 0.0 - Partly cloudy 10 - - - -
28/11:00am 28.0 NW 9 14 1008.9 - 0.0 - Partly cloudy 10 - - - -
28/10:58am 28.5 NW 9 13 1008.9 - 0.0 - Partly cloudy 10 - - - -
28/10:30am 28.0 NW 8 11 1009.0 - 0.0 - Partly cloudy 10 - - - -
28/10:20am 27.8 NW 8 11 1009.2 - 0.0 - Partly cloudy 10 - - - -
28/10:00am 27.4 NW 7 12 1009.3 - 0.0 - Partly cloudy 10 - - - -
28/09:30am 26.5 NW 7 11 1009.3 - 0.0 - - 10 - - - -
28/09:00am 26.0 WNW 7 11 1009.3 - 47.6 - Mostly cloudy 10 - - - -
28/08:56am 26.0 WNW 7 11 1009.2 - 47.6 - Partly cloudy 10 - - - -
28/08:37am 25.9 NW 8 12 1008.9 - 47.6 - Partly cloudy 10 - - - -
28/08:30am 25.6 NW 8 13 1008.9 - 47.6 - Partly cloudy 10 - - - -
28/08:04am 24.8 NW 8 12 1008.9 - 47.4 - Partly cloudy 8 - - - -
28/08:00am 24.7 NW 9 17 1008.9 - 47.4 - Partly cloudy 8 - - - -
28/07:58am 24.7 NW 10 17 1008.9 - 47.4 - Partly cloudy 7 - - - -
28/07:51am 24.7 NW 11 17 1008.9 - 47.2 - Partly cloudy 9 - - - -
28/07:47am 24.8 NW 12 22 1008.8 - 47.2 - Partly cloudy 5 - - - -
28/07:40am 25.0 NW 15 22 1008.7 - 47.0 - Partly cloudy 5 - - - -
28/07:37am 25.3 NW 16 24 1008.6 - 46.4 - Partly cloudy 10 - - - -
28/07:30am 25.8 NNW 15 24 1008.3 - 46.4 - Partly cloudy 10 - - - -
28/07:25am 26.0 NNW 14 19 1008.2 - 46.2 - Partly cloudy 10 - - - -
28/07:03am 26.3 NNW 11 16 1007.9 - 46.2 - Partly cloudy 10 - - - -
28/07:00am 26.1 NNW 10 14 1007.9 - 46.2 - Partly cloudy 10 - - - -
28/06:56am 26.0 NNW 9 13 1007.9 - 46.2 - Partly cloudy 10 - - - -
28/06:42am 25.4 N 6 10 1007.7 - 46.2 - Partly cloudy 10 - - - -
28/06:30am 25.1 NNW 6 9 1007.6 - 46.2 - Partly cloudy 10 - - - -
28/06:14am 24.9 NW 2 5 1007.5 - 46.2 - Partly cloudy 9 - - - -
28/06:01am 24.6 NNW 1 4 1007.4 - 46.0 - Partly cloudy 9 - - - -
28/06:00am 24.6 NNW 1 4 1007.4 - 46.0 - Cloudy 9 - - - -
28/05:41am 24.1 NNW 12 24 1007.5 - 45.2 - Partly cloudy 0.9 - - - -
28/05:35am 24.2 NW 16 24 1007.5 - 37.2 - Partly cloudy 3 - - - -
28/05:34am 24.4 W 12 24 1007.5 - 35.0 - Partly cloudy 5 - - - -
28/05:30am 24.9 S 4 6 1007.2 - 32.4 - Partly cloudy 10 - - - -
28/05:07am 25.4 NNW 6 12 1007.2 - 32.0 - Partly cloudy 10 - - - -
28/05:00am 25.3 N 10 13 1007.0 - 32.0 - Partly cloudy 10 - - - -
28/04:35am 25.2 N 10 15 1006.8 - 26.0 - Partly cloudy 5 - - - -
28/04:34am 25.2 N 10 15 1006.9 - 25.8 - Partly cloudy 6 - - - -
28/04:30am 25.1 N 10 15 1006.8 - 25.2 - Partly cloudy 7 - - - -
28/04:00am 24.9 N 12 17 1006.8 - 24.6 - Partly cloudy 10 - - - -
28/03:30am 25.3 NW 10 13 1007.0 - 24.4 - Partly cloudy 10 - - - -
28/03:00am 25.0 CALM 0 0 1006.7 - 24.4 - Partly cloudy 10 - - - -
28/02:30am 24.9 W 4 4 1007.0 - 24.4 - Partly cloudy 10 - - - -
28/02:00am 24.8 WNW 5 6 1007.2 - 24.4 - Partly cloudy 10 - - - -
28/01:30am 24.3 WNW 5 7 1007.3 - 24.2 - Partly cloudy 10 - - - -
28/01:25am 24.2 WNW 6 8 1007.4 - 24.2 - Partly cloudy 10 - - - -
28/01:00am 24.6 W 10 20 1008.1 - 20.4 - Partly cloudy 5 - - - -
28/12:30am 26.0 WNW 5 6 1008.2 - 18.4 - Partly cloudy 10 - - - -
28/12:00am 25.7 WNW 5 6 1008.5 - 18.4 - - 10 - - - -
 
Date/Time
EST
Temp

°C
Wind Pressure Rain
since 9am
mm
Weather Cloud Vis
km
Sea
Height
m
Swell
Dir
 
Speed
knots
Gust
knots
hPa Trend Height
m
Period
s
Dir
27/11:30pm 25.8 W 3 4 1008.7 - 18.2 - - 10 - - - -
27/11:00pm 25.9 W 3 4 1009.2 - 18.2 - - 10 - - - -
27/10:30pm 25.9 WNW 4 6 1009.3 - 18.2 - - 10 - - - -
27/10:00pm 25.5 WNW 5 6 1008.9 - 18.2 - - 10 - - - -
27/09:30pm 25.7 W 5 7 1008.7 - 18.2 - Partly cloudy 10 - - - -
27/09:00pm 25.7 WNW 6 7 1008.4 - 18.2 - Mostly clear 10 - - - -
27/08:30pm 25.8 W 5 8 1008.0 - 18.2 - Partly cloudy 10 - - - -
27/08:00pm 25.6 W 6 8 1007.5 - 18.2 - Partly cloudy 10 - - - -
27/07:30pm 25.4 W 6 8 1006.9 - 18.2 - Partly cloudy 10 - - - -
27/07:00pm 25.5 W 7 10 1006.2 - 18.2 - Partly cloudy 10 - - - -
27/06:30pm 25.4 W 6 9 1005.6 - 18.2 - Partly cloudy 10 - - - -
27/06:00pm 25.2 W 9 14 1005.7 - 18.2 - Mostly clear 10 - - - -
27/05:30pm 25.4 W 10 17 1005.8 - 18.2 - Partly cloudy 10 - - - -
27/05:00pm 24.9 W 9 14 1005.9 - 17.8 - Partly cloudy 10 - - - -
27/04:30pm 24.6 W 9 13 1006.1 - 17.6 - Cloudy 10 - - - -
27/04:00pm 24.9 W 7 11 1006.0 - 16.8 - Partly cloudy 8 - - - -
27/03:56pm 25.0 WNW 7 10 1006.0 - 16.6 - Partly cloudy 7 - - - -
27/03:42pm 24.9 NW 9 13 1006.1 - 15.8 - Partly cloudy 5 - - - -
27/03:30pm 24.8 NW 10 16 1006.2 - 15.0 - Partly cloudy 8 - - - -
27/03:26pm 24.8 NW 11 16 1006.3 - 14.6 - Partly cloudy 7 - - - -
27/03:03pm 24.7 WNW 13 18 1006.5 - 13.2 - Partly cloudy 5 - - - -
27/03:00pm 24.8 WNW 13 21 1006.4 - 13.0 - Cloudy 7 - - - -
27/02:49pm 25.0 NW 12 19 1006.5 - 12.8 - Partly cloudy 10 - - - -
27/02:43pm 25.2 NW 12 21 1006.6 - 12.8 - Partly cloudy 10 - - - -
27/02:30pm 25.3 NNW 12 24 1006.6 - 12.8 - Partly cloudy 5 - - - -
27/02:25pm 25.1 NW 11 24 1006.7 - 12.8 - Partly cloudy 5 - - - -
27/02:11pm 25.9 NW 9 13 1006.8 - 11.6 - Partly cloudy 10 - - - -
27/02:00pm 25.8 NW 8 13 1006.8 - 11.6 - Partly cloudy 10 - - - -
27/01:30pm 25.7 NW 6 9 1007.4 - 11.6 - Partly cloudy 10 - - - -
27/01:00pm 25.3 W 5 6 1007.7 - 11.2 - Partly cloudy 10 - - - -
27/12:30pm 24.8 W 5 7 1008.2 - 11.2 - Partly cloudy 10 - - - -
27/12:00pm 24.7 W 5 7 1008.8 - 11.0 - Mostly cloudy 10 - - - -
27/11:38am 24.6 W 5 8 1009.2 - 10.4 - Partly cloudy 6 - - - -
27/11:30am 24.5 W 7 11 1009.2 - 10.0 - Partly cloudy 6 - - - -
27/11:26am 24.3 W 7 11 1009.2 - 9.6 - Partly cloudy 5 - - - -
27/11:13am 24.3 W 7 13 1009.4 - 8.4 - Partly cloudy 5 - - - -
27/11:04am 24.2 W 9 14 1009.4 - 8.0 - Partly cloudy 7 - - - -
27/11:00am 24.2 W 10 17 1009.4 - 7.6 - Partly cloudy 6 - - - -
27/10:30am 25.3 W 2 5 1009.5 - 5.6 - Partly cloudy 4 - - - -
27/10:19am 25.1 CALM 0 0 1009.5 - 4.6 - Partly cloudy 4 - - - -
27/10:13am 25.0 CALM 0 0 1009.5 - 4.2 - Partly cloudy 5 - - - -
27/10:00am 24.8 WSW 2 4 1009.4 - 3.6 - Partly cloudy 7 - - - -
27/09:30am 24.7 W 6 9 1009.5 - 2.2 - Partly cloudy 6 - - - -
27/09:21am 24.6 W 7 9 1009.5 - 1.4 - Partly cloudy 7 - - - -
27/09:00am 24.6 WNW 5 7 1009.2 - 43.8 - Cloudy 5 - - - -
27/08:43am 24.4 WNW 6 8 1008.8 - 42.2 - Partly cloudy 5 - - - -
27/08:38am 24.4 WNW 7 9 1008.8 - 41.6 - Partly cloudy 7 - - - -
27/08:30am 24.3 WNW 7 10 1008.7 - 41.2 - Partly cloudy 6 - - - -
27/08:11am 25.0 NW 9 16 1008.4 - 37.8 - Partly cloudy 5 - - - -
27/08:03am 25.3 NW 8 11 1008.2 - 37.0 - Partly cloudy 7 - - - -
27/08:00am 25.2 NW 7 11 1008.2 - 36.6 - Partly cloudy 8 - - - -
27/07:31am 25.1 NW 7 10 1007.8 - 35.4 - Partly cloudy 7 - - - -
27/07:30am 25.2 NW 8 10 1007.8 - 35.4 - Partly cloudy 7 - - - -
27/07:25am 25.3 NW 8 13 1007.7 - 35.0 - Partly cloudy 7 - - - -
27/07:00am 25.4 NW 10 16 1007.2 - 33.6 - Partly cloudy 5 - - - -
27/06:55am 25.8 NW 10 16 1007.2 - 33.2 - Partly cloudy 5 - - - -
27/06:53am 25.7 NW 10 16 1007.2 - 32.8 - Partly cloudy 5 - - - -
27/06:49am 25.6 NW 9 13 1007.2 - 32.4 - Partly cloudy 6 - - - -
27/06:30am 25.2 NNW 11 16 1007.0 - 31.0 - Partly cloudy 4 - - - -
27/06:18am 24.9 NNW 12 18 1007.1 - 29.8 - Partly cloudy 3 - - - -
27/06:04am 24.8 NNW 11 20 1007.0 - 27.4 - Partly cloudy 5 - - - -
27/06:00am 25.6 NNW 9 20 1006.9 - 26.8 - Cloudy 9 - - - -
27/05:57am 26.1 NNW 8 14 1006.8 - 26.6 - Partly cloudy 10 - - - -
27/05:30am 25.8 NNW 11 15 1006.8 - 26.4 - Partly cloudy 10 - - - -
27/05:18am 26.1 NNW 10 14 1006.7 - 26.0 - Partly cloudy 9 - - - -
27/05:00am 25.8 NNW 10 14 1006.5 - 25.2 - Partly cloudy 5 - - - -
27/04:56am 26.0 NNW 8 12 1006.5 - 24.6 - Partly cloudy 5 - - - -
27/04:30am 25.7 N 10 15 1006.0 - 22.8 - Partly cloudy 10 - - - -
27/04:00am 24.6 N 6 8 1005.9 - 22.6 - Partly cloudy 10 - - - -
27/03:36am 24.4 N 7 10 1005.8 - 22.0 - Partly cloudy 9 - - - -
27/03:30am 24.2 N 7 10 1005.8 - 21.8 - Partly cloudy 8 - - - -
27/03:14am 24.0 N 10 15 1006.2 - 20.4 - Partly cloudy 2 - - - -
27/03:03am 24.8 NNW 11 16 1006.4 - 16.2 - Partly cloudy 5 - - - -
27/03:00am 24.9 NNW 12 17 1006.4 - 16.0 - Cloudy 6 - - - -
27/02:42am 25.2 NW 8 13 1006.2 - 16.0 - Partly cloudy 10 - - - -
27/02:30am 26.2 NE 4 5 1006.0 - 16.0 - Partly cloudy 10 - - - -
27/02:00am 26.0 ENE 4 5 1006.2 - 16.0 - Partly cloudy 10 - - - -
27/01:30am 26.0 ENE 4 5 1006.7 - 16.0 - - 10 - - - -
27/01:00am 25.6 ENE 2 4 1007.4 - 16.0 - - 10 - - - -
27/12:30am 25.4 CALM 0 0 1007.8 - 15.8 - - 10 - - - -
27/12:00am 25.7 CALM 0 2 1007.9 - 15.8 - - 10 - - - -
 
Date/Time
EST
Temp

°C
Wind Pressure Rain
since 9am
mm
Weather Cloud Vis
km
Sea
Height
m
Swell
Dir
 
Speed
knots
Gust
knots
hPa Trend Height
m
Period
s
Dir
26/11:30pm 25.6 CALM 0 0 1008.3 - 15.8 - - 10 - - - -
26/11:00pm 25.6 CALM 0 0 1008.6 - 15.8 - - 10 - - - -
26/10:30pm 25.7 CALM 0 0 1008.5 - 15.8 - - 10 - - - -
26/10:00pm 25.5 ESE 4 5 1008.1 - 15.8 - - 10 - - - -
26/09:30pm 25.9 CALM 0 0 1008.0 - 15.8 - - 10 - - - -

Other Formats:

Comma delimited format used in spreadsheet applications
http://www.bom.gov.au/fwo/IDQ60701/IDQ60701.94174.axf

JavaScript Object Notation format (JSON) in row-major order
http://www.bom.gov.au/fwo/IDQ60701/IDQ60701.94174.json